Impacts TAF Board INFO
FOR SITUATIONAL AWARENESS. NOT TO BE USED FOR FLIGHT PLANNING PURPOSES.
IDs:

KCVG - Cincinnati Intl, KY, US

Issued at 2332 UTC 11 Dec 2017
Updated at 0225 UTC 12 Dec 2017
Potential Impact None Slight Moderate High
Time<<12/15Z 12/16Z 12/17Z 12/18Z 12/19Z 12/20Z 12/21Z 12/22Z 12/23Z 13/00Z 13/01Z 13/02Z 13/03Z>>
Type PRVL PRVL PRVL PRVL PRVL PRVL PRVL PRVL PRVL PRVL PRVL PRVL PRVL
VIS >6 >6 >6 >6 >6 >6 >6 >6 >6 >6 >6 >6 >6
CIG 15 22 22 22 35 35 35 35 -- -- -- -- --
Cover OVC BKN BKN BKN BKN BKN BKN BKN SCT SCT SCT SCT SCT
FltCat MVFR MVFR MVFR MVFR VFR VFR VFR VFR VFR VFR VFR VFR VFR
WX VCSH VCSH VCSH VCSH -- -- -- -- -- -- -- -- --
WDir 300 300 300 300 300 300 300 300 300 300 300 300 300
WSpd 15 15 15 15 11 11 11 11 11 11 11 11 11
WGst 28 28 28 28 20 20 20 20 -- -- -- -- --

Raw TAF
KCVG 112332Z 1200/1306 18006KT P6SM BKN150
  FM120300 24010KT P6SM BKN200
  FM120600 28012G21KT P6SM BKN025
  FM120900 30015G28KT P6SM VCSH OVC015
  FM121600 30015G28KT P6SM VCSH BKN022
  FM121900 30011G20KT P6SM BKN035
  FM122300 30011KT P6SM SCT035


METAR Board
Radar Display
Forecast Discussion

FOR SITUATIONAL AWARENESS. NOT TO BE USED FOR FLIGHT PLANNING PURPOSES.